Beaverton, Michigan
Current Conditions -  °F | °C
As of 7:35 AM on Monday 24 Nov 2014 (Local Time) from KIKW Reporting Station
Light Rain Light Rain  
Wind Chill: 51°   Ceiling: 700
Heat Index: 51°   Visibility: 10mi
Dew Point: 50°   Wind: 8mph
Humidity: 97%   Direction: 210°SSW
Pressure: 29.03"   Gusts: NA
Location:  43.88°N, 84.48°W
Report Text: KIKW 241235Z AUTO 21007KT 10SM -RA OVC007 11/10 A2903 RMK AO2 P0001 T01060102
Loading
Personal Weather Stations






























Interactive Weather Map New forecast layout! Learn more

10-Day Weather Forecast

Advertisements
Track Severe Weather on mobile